Noord Nederlandse Zweefvliegclub

METAR EHGG TAF EHGG
4 °C
°C
-
°C
15m
Leeftijd
23:40:08
LT
22:40
UTC
0 ft

1.000

2.000

3.000

4.000

5.000

BKN 1.200
OVC 1.400
MVFR
<?= Yii::t('app', 'Wind direction') ?> <?= Yii::t('app', 'of'); ?>
040°
08:26
Zonsopgang
87%
Luchtvochtigheid
Windschering
Gesloten/sneeuw
Baanzicht
Baanconditie
Verticaal zicht
Min. zicht
CAVOK
Trend
Correctie
Speciaal rapport
1025 hPa
QNH
METAR EHGG 262225Z AUTO 04008KT 360V070 9999 BKN012 OVC014 04/02 Q1025
Geheel bewolkt
6 kt
6 kt
23:00
IFR
10 kt
00:00
IFR
10 kt
01:00
IFR
10 kt
02:00
IFR
10 kt
03:00
IFR
10 kt
04:00
IFR
10 kt
05:00
IFR
10 kt
10 km+
Zicht
1.200 ft
Plafond
8 kt
Wind
metar-taf.com/NL-0036

Metar-Taf.com

Visuele decoder

Wij en derden volgen je internetgedrag op onze website met cookies. Als je doorgaat, gaan we ervan uit dat je akkoord gaat met onze cookiebeleid.